This is the latest recevied weather packets stored in our database for station/object IU2NAF-13. If no packets are shown the sender has not sent any weather packets the latest 10 day(s).
| Time | Temp. | Humidity | Pressure | Rain* | Wind** | Luminosity | Snow |
|---|---|---|---|---|---|---|---|
| 1787653454 | 25° C | 58% | 1012 hPa | - | - | - | - |
| 1787652254 | 25° C | 58% | 1012 hPa | - | - | - | - |
| 1787651053 | 25° C | 58% | 1012.1 hPa | - | - | - | - |
| 1787649853 | 25° C | 58% | 1012 hPa | - | - | - | - |
| 1787648653 | 24.44° C | 58% | 1012.1 hPa | - | - | - | - |
| 1787647452 | 24.44° C | 59% | 1012 hPa | - | - | - | - |
| 1787646252 | 24.44° C | 60% | 1011.8 hPa | - | - | - | - |
| 1787645052 | 23.89° C | 63% | 1011.9 hPa | - | - | - | - |
| 1787643852 | 23.33° C | 63% | 1011.3 hPa | - | - | - | - |
| 1787642651 | 23.33° C | 62% | 1011.2 hPa | - | - | - | - |
| 1787641451 | 23.33° C | 61% | 1011 hPa | - | - | - | - |
| 1787640251 | 23.89° C | 60% | 1010.7 hPa | - | - | - | - |
| 1787639050 | 23.89° C | 60% | 1010.6 hPa | - | - | - | - |
| 1787637850 | 23.89° C | 61% | 1010.4 hPa | - | - | - | - |
| 1787636650 | 24.44° C | 62% | 1010.2 hPa | - | - | - | - |
| 1787635449 | 24.44° C | 61% | 1010.1 hPa | - | - | - | - |
| 1787611116 | 26.11° C | 49% | 1012.8 hPa | - | - | - | - |
| 1787609916 | 26.11° C | 50% | 1012.9 hPa | - | - | - | - |
| 1787608715 | 26.11° C | 51% | 1012.3 hPa | - | - | - | - |
| 1787607515 | 26.11° C | 51% | 1012.7 hPa | - | - | - | - |
| 1787606315 | 26.11° C | 51% | 1012.8 hPa | - | - | - | - |
| 1787605114 | 26.11° C | 52% | 1012.9 hPa | - | - | - | - |
| 1787603914 | 26.11° C | 52% | 1013.3 hPa | - | - | - | - |
| 1787602714 | 26.11° C | 52% | 1013.4 hPa | - | - | - | - |
| 1787601513 | 26.11° C | 52% | 1013.3 hPa | - | - | - | - |
* Rain since midnight (hover to see other rain measurements)
** Current wind speed in m/s (hover to see current wind gust speed)